createdAt,value
2019-02-06T00:01:49.289Z,8.01
2019-02-06T00:04:17.713Z,7.79
2019-02-06T00:06:46.001Z,8.85
2019-02-06T00:09:15.034Z,7.48
2019-02-06T00:11:43.296Z,6.64
2019-02-06T00:14:11.602Z,6.97
2019-02-06T00:16:39.897Z,7.64
2019-02-06T00:19:08.272Z,7.34
2019-02-06T00:21:37.203Z,7.26
2019-02-06T00:24:05.544Z,8.48
2019-02-06T00:26:33.919Z,8.31
2019-02-06T00:29:02.191Z,7.01
2019-02-06T00:31:30.545Z,7.39
2019-02-06T00:33:58.818Z,7.15
2019-02-06T00:36:27.100Z,7.25
2019-02-06T00:38:55.369Z,7.39
2019-02-06T00:41:23.676Z,7.57
2019-02-06T00:43:52.036Z,7.14
2019-02-06T00:46:20.288Z,7.10
2019-02-06T00:48:48.592Z,7.30
2019-02-06T00:51:17.122Z,7.50
2019-02-06T00:53:45.860Z,6.65
2019-02-06T00:56:14.150Z,6.27
2019-02-06T00:58:42.438Z,5.99
2019-02-06T01:01:10.771Z,6.46
2019-02-06T01:03:39.102Z,6.94
2019-02-06T01:06:07.467Z,6.90
2019-02-06T01:08:35.757Z,6.84
2019-02-06T01:11:04.272Z,6.46
2019-02-06T01:13:32.539Z,6.51
2019-02-06T01:16:00.825Z,6.61
2019-02-06T01:18:29.075Z,6.99
2019-02-06T01:20:57.358Z,6.63
2019-02-06T01:23:25.650Z,6.32
2019-02-06T01:25:53.924Z,6.39
2019-02-06T01:28:22.603Z,7.40
2019-02-06T01:30:52.650Z,6.72
2019-02-06T01:33:20.983Z,6.97
2019-02-06T01:35:50.307Z,6.67
2019-02-06T01:38:18.712Z,5.89
2019-02-06T01:40:46.972Z,7.03
2019-02-06T01:43:15.261Z,7.03
2019-02-06T01:45:43.602Z,6.81
2019-02-06T01:48:11.869Z,6.41
2019-02-06T01:50:40.145Z,6.27
2019-02-06T01:53:08.511Z,6.10
2019-02-06T01:55:36.782Z,7.04
2019-02-06T01:58:05.027Z,6.49
2019-02-06T02:00:33.370Z,6.76
2019-02-06T02:03:01.633Z,6.71
2019-02-06T02:05:29.985Z,6.75
2019-02-06T02:07:58.365Z,7.34
2019-02-06T02:10:26.608Z,7.36
2019-02-06T02:12:54.902Z,6.45
2019-02-06T02:15:23.165Z,7.08
2019-02-06T02:17:51.706Z,7.01
2019-02-06T02:20:24.564Z,6.99
2019-02-06T02:22:53.216Z,6.77
2019-02-06T02:25:21.874Z,6.19
2019-02-06T02:27:50.271Z,6.88
2019-02-06T02:30:26.080Z,7.02
2019-02-06T02:32:54.438Z,6.38
2019-02-06T02:35:23.098Z,6.64
2019-02-06T02:37:51.342Z,5.95
2019-02-06T02:40:19.858Z,6.29
2019-02-06T02:42:48.103Z,5.32
2019-02-06T02:45:18.328Z,5.91
2019-02-06T02:47:47.196Z,5.46
2019-02-06T02:50:15.555Z,5.70
2019-02-06T02:52:43.922Z,5.45
2019-02-06T02:55:13.238Z,6.58
2019-02-06T02:57:41.682Z,6.69
2019-02-06T03:00:22.293Z,6.21
2019-02-06T03:02:55.119Z,5.72
2019-02-06T03:05:24.945Z,6.00
2019-02-06T03:07:53.230Z,6.67
2019-02-06T03:10:21.489Z,6.50
2019-02-06T03:12:49.744Z,5.93
2019-02-06T03:15:18.027Z,5.40
2019-02-06T03:17:46.275Z,5.55
2019-02-06T03:20:14.807Z,5.23
2019-02-06T03:22:43.081Z,5.20
2019-02-06T03:25:13.468Z,5.72
2019-02-06T03:27:41.794Z,5.87
2019-02-06T03:30:13.340Z,5.51
2019-02-06T03:32:41.668Z,5.25
2019-02-06T03:35:09.993Z,5.95
2019-02-06T03:37:38.276Z,5.19
2019-02-06T03:40:12.417Z,5.31
2019-02-06T03:42:40.697Z,5.51
2019-02-06T03:45:11.299Z,5.56
2019-02-06T03:47:39.578Z,5.31
2019-02-06T03:50:11.060Z,5.66
2019-02-06T03:52:39.278Z,5.50
2019-02-06T03:55:09.313Z,6.34
2019-02-06T03:57:37.540Z,5.71
2019-02-06T04:00:08.975Z,5.34
2019-02-06T04:02:37.333Z,5.62
2019-02-06T04:05:07.748Z,4.90
2019-02-06T04:07:36.087Z,5.43
2019-02-06T04:10:08.035Z,4.98
2019-02-06T04:12:36.290Z,5.19
2019-02-06T04:15:06.713Z,5.50
2019-02-06T04:17:35.307Z,4.91
2019-02-06T04:20:05.120Z,4.73
2019-02-06T04:22:33.389Z,5.11
2019-02-06T04:25:01.697Z,5.13
2019-02-06T04:27:29.980Z,5.51
2019-02-06T04:29:58.231Z,4.92
2019-02-06T04:32:26.967Z,4.72
2019-02-06T04:34:55.269Z,4.93
2019-02-06T04:37:23.519Z,5.16
2019-02-06T04:39:51.782Z,5.60
2019-02-06T04:42:20.083Z,4.97
2019-02-06T04:44:48.361Z,5.34
2019-02-06T04:47:16.626Z,5.14
2019-02-06T04:49:45.108Z,5.04
2019-02-06T04:52:13.393Z,4.72
2019-02-06T04:54:41.680Z,5.25
2019-02-06T04:57:09.938Z,4.47
2019-02-06T04:59:38.315Z,4.34
2019-02-06T05:02:06.604Z,5.00
2019-02-06T05:04:34.922Z,4.65
2019-02-06T05:07:03.325Z,4.59
2019-02-06T05:09:31.576Z,4.77
2019-02-06T05:11:59.848Z,5.46
2019-02-06T05:14:28.100Z,5.30
2019-02-06T05:16:56.360Z,5.23
2019-02-06T05:19:24.647Z,4.93
2019-02-06T05:21:52.901Z,4.63
2019-02-06T05:24:21.182Z,5.19
2019-02-06T05:26:49.429Z,4.65
2019-02-06T05:29:17.711Z,5.21
2019-02-06T05:31:45.997Z,4.98
2019-02-06T05:34:14.288Z,5.28
2019-02-06T05:36:42.616Z,5.83
2019-02-06T05:39:10.896Z,6.34
2019-02-06T05:41:39.152Z,6.24
2019-02-06T05:44:07.438Z,6.08
2019-02-06T05:46:35.709Z,5.89
2019-02-06T05:49:04.057Z,6.56
2019-02-06T05:51:32.348Z,5.59
2019-02-06T05:54:00.632Z,5.72
2019-02-06T05:56:28.969Z,5.72
2019-02-06T05:58:57.314Z,5.52
2019-02-06T06:01:25.966Z,5.70
2019-02-06T06:03:54.345Z,5.80
2019-02-06T06:06:22.653Z,5.64
2019-02-06T06:08:50.938Z,5.57
2019-02-06T06:11:19.254Z,5.55
2019-02-06T06:13:47.517Z,5.65
2019-02-06T06:16:15.974Z,5.53
2019-02-06T06:18:44.267Z,4.89
2019-02-06T06:21:12.520Z,5.23
2019-02-06T06:23:40.809Z,5.00
2019-02-06T06:26:09.068Z,5.42
2019-02-06T06:28:37.341Z,4.94
2019-02-06T06:31:13.576Z,5.46
2019-02-06T06:33:41.890Z,5.32
2019-02-06T06:36:10.159Z,4.81
2019-02-06T06:38:38.490Z,5.41
2019-02-06T06:41:06.784Z,5.72
2019-02-06T06:43:35.043Z,5.88
2019-02-06T06:46:03.332Z,5.21
2019-02-06T06:48:32.046Z,5.26
2019-02-06T06:51:00.392Z,5.34
2019-02-06T06:53:28.675Z,6.10
2019-02-06T06:55:56.965Z,5.74
2019-02-06T06:58:25.239Z,5.64
2019-02-06T07:00:53.612Z,6.60
2019-02-06T07:03:21.890Z,5.47
2019-02-06T07:05:50.174Z,6.23
2019-02-06T07:08:18.449Z,6.30
2019-02-06T07:10:46.710Z,5.71
2019-02-06T07:13:14.997Z,5.67
2019-02-06T07:15:43.274Z,6.08
2019-02-06T07:18:11.572Z,5.75
2019-02-06T07:20:40.215Z,5.25
2019-02-06T07:23:08.587Z,5.21
2019-02-06T07:25:36.842Z,4.66
2019-02-06T07:28:05.198Z,5.48
2019-02-06T07:30:35.253Z,5.47
2019-02-06T07:33:03.741Z,5.57
2019-02-06T07:35:32.225Z,5.60
2019-02-06T07:38:02.613Z,6.07
2019-02-06T07:40:31.046Z,5.96
2019-02-06T07:42:59.324Z,5.83
2019-02-06T07:45:28.150Z,5.13
2019-02-06T07:47:59.439Z,5.48
2019-02-06T07:50:29.954Z,6.16
2019-02-06T07:52:58.876Z,5.21
2019-02-06T07:55:27.150Z,6.28
2019-02-06T07:57:55.478Z,5.80
2019-02-06T08:00:23.820Z,6.97
2019-02-06T08:02:53.521Z,6.01
2019-02-06T08:05:22.372Z,5.87
2019-02-06T08:07:51.309Z,6.07
2019-02-06T08:10:21.997Z,5.83
2019-02-06T08:12:50.322Z,6.19
2019-02-06T08:15:19.028Z,6.61
2019-02-06T08:17:47.793Z,6.21
2019-02-06T08:20:23.426Z,6.56
2019-02-06T08:22:52.072Z,5.94
2019-02-06T08:25:22.763Z,5.98
2019-02-06T08:27:51.231Z,6.56
2019-02-06T08:30:25.129Z,5.50
2019-02-06T08:32:53.846Z,6.88
2019-02-06T08:35:22.201Z,6.80
2019-02-06T08:37:51.402Z,5.74
2019-02-06T08:40:22.711Z,5.88
2019-02-06T08:42:59.410Z,6.15
2019-02-06T08:45:28.173Z,6.20
2019-02-06T08:47:56.461Z,7.19
2019-02-06T08:50:25.878Z,6.30
2019-02-06T08:52:54.309Z,6.26
2019-02-06T08:55:27.703Z,5.65
2019-02-06T08:57:56.023Z,6.49
2019-02-06T09:00:35.364Z,6.19
2019-02-06T09:03:04.699Z,6.04
2019-02-06T09:05:33.058Z,6.25
2019-02-06T09:08:01.338Z,6.61
2019-02-06T09:10:31.148Z,7.18
2019-02-06T09:13:00.166Z,6.31
2019-02-06T09:15:28.591Z,7.52
2019-02-06T09:17:57.370Z,7.63
2019-02-06T09:20:27.534Z,8.43
2019-02-06T09:22:56.126Z,8.62
2019-02-06T09:25:26.147Z,7.80
2019-02-06T09:27:54.545Z,8.40
2019-02-06T09:30:27.406Z,7.57
2019-02-06T09:32:57.724Z,7.67
2019-02-06T09:35:26.361Z,8.21
2019-02-06T09:37:54.701Z,8.19
2019-02-06T09:40:27.875Z,7.84
2019-02-06T09:42:56.226Z,8.26
2019-02-06T09:45:24.647Z,7.52
2019-02-06T09:47:52.914Z,7.32
2019-02-06T09:50:30.375Z,6.87
2019-02-06T09:52:58.656Z,7.96
2019-02-06T09:55:26.908Z,6.99
2019-02-06T09:57:55.242Z,7.93
2019-02-06T10:00:28.829Z,8.09
2019-02-06T10:02:57.126Z,7.18
2019-02-06T10:05:25.400Z,8.57
2019-02-06T10:07:53.675Z,7.72
2019-02-06T10:10:24.980Z,7.94
2019-02-06T10:12:53.309Z,8.09
2019-02-06T10:15:24.033Z,8.49
2019-02-06T10:17:53.016Z,8.17
2019-02-06T10:20:24.426Z,9.27
2019-02-06T10:22:52.777Z,9.54
2019-02-06T10:25:21.151Z,8.57
2019-02-06T10:27:49.451Z,8.83
2019-02-06T10:30:29.633Z,8.45
2019-02-06T10:32:58.466Z,8.98
2019-02-06T10:35:26.743Z,9.13
2019-02-06T10:37:55.004Z,9.36
2019-02-06T10:40:28.413Z,9.42
2019-02-06T10:42:56.773Z,9.92
2019-02-06T10:45:25.116Z,10.52
2019-02-06T10:47:53.961Z,9.05
2019-02-06T10:50:28.194Z,9.30
2019-02-06T10:52:56.647Z,9.47
2019-02-06T10:55:25.130Z,8.71
2019-02-06T10:57:53.488Z,9.31
2019-02-06T11:00:42.047Z,9.78
2019-02-06T11:03:10.675Z,10.22
2019-02-06T11:05:39.101Z,10.49
2019-02-06T11:08:07.476Z,8.92
2019-02-06T11:10:35.760Z,9.51
2019-02-06T11:13:04.916Z,8.89
2019-02-06T11:15:33.627Z,9.33
2019-02-06T11:18:01.901Z,9.48
2019-02-06T11:20:33.593Z,8.65
2019-02-06T11:23:02.045Z,8.09
2019-02-06T11:25:30.328Z,8.77
2019-02-06T11:27:58.639Z,8.22
2019-02-06T11:30:29.666Z,8.47
2019-02-06T11:32:58.014Z,8.85
2019-02-06T11:35:26.274Z,9.51
2019-02-06T11:37:54.610Z,9.20
2019-02-06T11:40:24.397Z,8.80
2019-02-06T11:42:53.291Z,9.29
2019-02-06T11:45:26.858Z,9.11
2019-02-06T11:47:55.215Z,10.20
2019-02-06T11:50:25.474Z,10.63
2019-02-06T11:52:54.018Z,10.13
2019-02-06T11:55:30.832Z,10.35
2019-02-06T11:57:59.190Z,10.89
2019-02-06T12:00:29.544Z,12.03
2019-02-06T12:02:57.815Z,12.10
2019-02-06T12:05:26.159Z,12.31
2019-02-06T12:07:54.499Z,12.47
2019-02-06T12:10:23.457Z,13.99
2019-02-06T12:12:51.728Z,13.53
2019-02-06T12:15:20.865Z,15.21
2019-02-06T12:17:49.203Z,14.11
2019-02-06T12:20:22.054Z,14.64
2019-02-06T12:22:50.404Z,15.11
2019-02-06T12:25:19.348Z,13.30
2019-02-06T12:27:50.811Z,13.67
2019-02-06T12:30:24.949Z,14.06
2019-02-06T12:32:53.252Z,13.96
2019-02-06T12:35:21.915Z,15.71
2019-02-06T12:37:50.197Z,16.47
2019-02-06T12:40:21.554Z,16.29
2019-02-06T12:42:49.030Z,15.58
2019-02-06T12:45:19.392Z,14.65
2019-02-06T12:47:48.031Z,15.44
2019-02-06T12:50:21.889Z,14.38
2019-02-06T12:52:50.166Z,14.57
2019-02-06T12:55:21.577Z,16.46
2019-02-06T12:57:49.928Z,16.36
2019-02-06T13:00:24.167Z,17.02
2019-02-06T13:02:56.361Z,17.41
2019-02-06T13:05:23.147Z,18.37
2019-02-06T13:07:51.492Z,18.17
2019-02-06T13:10:33.517Z,19.04
2019-02-06T13:12:54.213Z,18.63
2019-02-06T13:15:22.557Z,18.84
2019-02-06T13:17:51.335Z,18.31
2019-02-06T13:20:24.820Z,16.91
2019-02-06T13:22:53.244Z,18.94
2019-02-06T13:25:21.514Z,17.22
2019-02-06T13:27:50.221Z,18.17
2019-02-06T13:30:33.396Z,18.43
2019-02-06T13:33:01.733Z,16.09
2019-02-06T13:35:30.203Z,18.17
2019-02-06T13:37:58.467Z,16.65
2019-02-06T13:40:29.943Z,17.72
2019-02-06T13:42:58.686Z,16.98
2019-02-06T13:45:36.326Z,16.33
2019-02-06T13:48:05.743Z,16.26
2019-02-06T13:50:34.344Z,16.23
2019-02-06T13:53:02.629Z,17.90
2019-02-06T13:55:30.927Z,17.73
2019-02-06T13:57:59.229Z,17.61
2019-02-06T14:00:30.440Z,18.06
2019-02-06T14:02:58.864Z,18.89
2019-02-06T14:05:29.081Z,16.26
2019-02-06T14:08:02.962Z,17.55
2019-02-06T14:10:32.190Z,17.93
2019-02-06T14:13:01.021Z,17.11
2019-02-06T14:15:32.496Z,17.16
2019-02-06T14:18:01.013Z,17.16
2019-02-06T14:20:29.633Z,17.67
2019-02-06T14:23:09.641Z,18.34
2019-02-06T14:26:05.143Z,16.79
2019-02-06T14:28:56.393Z,17.75
2019-02-06T14:31:34.056Z,18.52
2019-02-06T14:34:11.403Z,16.48
2019-02-06T14:36:57.500Z,16.95
2019-02-06T14:39:29.244Z,15.76
2019-02-06T14:42:20.163Z,16.81
2019-02-06T14:45:03.608Z,15.10
2019-02-06T14:47:35.077Z,16.14
2019-02-06T14:50:15.386Z,15.13
2019-02-06T14:53:01.327Z,15.70
2019-02-06T14:55:55.730Z,15.44
2019-02-06T14:58:32.976Z,15.18
2019-02-06T15:01:07.181Z,14.02
2019-02-06T15:03:38.604Z,13.92
2019-02-06T15:06:15.981Z,13.87
2019-02-06T15:08:50.295Z,13.83
2019-02-06T15:11:24.636Z,14.00
2019-02-06T15:14:22.869Z,13.18
2019-02-06T15:17:10.897Z,14.29
2019-02-06T15:19:57.406Z,13.07
2019-02-06T15:22:45.257Z,13.72
2019-02-06T15:25:26.146Z,13.16
2019-02-06T15:28:25.044Z,13.84
2019-02-06T15:31:16.170Z,13.17
2019-02-06T15:33:53.600Z,12.76
2019-02-06T15:36:25.410Z,13.08
2019-02-06T15:39:19.366Z,12.94
2019-02-06T15:42:11.781Z,11.75
2019-02-06T15:45:15.074Z,12.91
2019-02-06T15:48:18.334Z,12.80
2019-02-06T15:51:07.214Z,13.40
2019-02-06T15:53:55.186Z,13.08
2019-02-06T15:56:35.318Z,12.22
2019-02-06T15:59:09.279Z,12.40
2019-02-06T16:01:58.745Z,12.10
2019-02-06T16:04:49.763Z,12.48
2019-02-06T16:07:48.540Z,11.86
2019-02-06T16:10:52.009Z,12.41
2019-02-06T16:13:45.963Z,12.76
2019-02-06T16:16:33.859Z,12.45
2019-02-06T16:19:14.131Z,12.82
2019-02-06T16:22:06.639Z,12.42
2019-02-06T16:24:53.269Z,12.29
2019-02-06T16:27:45.698Z,12.44
2019-02-06T16:30:37.797Z,11.50
2019-02-06T16:33:18.359Z,12.00
2019-02-06T16:35:58.430Z,12.08
2019-02-06T16:38:44.639Z,12.32
2019-02-06T16:41:36.694Z,11.19
2019-02-06T16:44:26.207Z,11.76
2019-02-06T16:47:12.637Z,10.63
2019-02-06T16:49:44.099Z,11.25
2019-02-06T16:52:27.108Z,11.63
2019-02-06T16:55:10.422Z,10.20
2019-02-06T16:57:50.667Z,12.09
2019-02-06T17:00:27.787Z,12.45
2019-02-06T17:03:23.504Z,12.13
2019-02-06T17:05:57.993Z,11.74
2019-02-06T17:08:47.752Z,11.30
2019-02-06T17:11:24.890Z,11.24
2019-02-06T17:13:58.916Z,11.52
2019-02-06T17:16:39.225Z,11.31
2019-02-06T17:19:13.497Z,11.47
2019-02-06T17:21:56.357Z,11.33
2019-02-06T17:24:50.640Z,10.80
2019-02-06T17:27:24.995Z,10.72
2019-02-06T17:30:13.884Z,10.99
2019-02-06T17:33:02.256Z,10.86
2019-02-06T17:35:45.562Z,11.03
2019-02-06T17:38:23.066Z,10.23
2019-02-06T17:41:06.558Z,9.81
2019-02-06T17:44:06.933Z,10.19
2019-02-06T17:46:47.159Z,10.35
2019-02-06T17:49:21.454Z,10.89
2019-02-06T17:52:12.592Z,10.51
2019-02-06T17:54:53.078Z,10.99
2019-02-06T17:57:21.440Z,9.81
2019-02-06T17:59:49.729Z,10.24
2019-02-06T18:02:18.433Z,11.02
2019-02-06T18:04:46.860Z,11.20
2019-02-06T18:07:15.215Z,10.59
2019-02-06T18:09:46.286Z,10.71
2019-02-06T18:12:14.760Z,11.34
2019-02-06T18:14:43.035Z,10.43
2019-02-06T18:17:11.354Z,10.91
2019-02-06T18:19:39.803Z,10.45
2019-02-06T18:22:08.417Z,10.31
2019-02-06T18:24:36.695Z,9.67
2019-02-06T18:27:05.657Z,10.18
2019-02-06T18:29:33.949Z,10.29
2019-02-06T18:32:02.243Z,9.92
2019-02-06T18:34:30.523Z,10.99
2019-02-06T18:36:59.236Z,10.78
2019-02-06T18:39:27.519Z,9.66
2019-02-06T18:41:55.819Z,9.80
2019-02-06T18:44:25.218Z,8.96
2019-02-06T18:46:54.294Z,8.89
2019-02-06T18:49:22.560Z,9.08
2019-02-06T18:51:50.810Z,9.34
2019-02-06T18:54:19.095Z,9.73
2019-02-06T18:56:47.642Z,10.26
2019-02-06T18:59:16.075Z,9.41
2019-02-06T19:01:44.355Z,9.32
2019-02-06T19:04:12.839Z,9.63
2019-02-06T19:06:41.114Z,9.99
2019-02-06T19:09:11.263Z,8.49
2019-02-06T19:11:39.511Z,8.90
2019-02-06T19:14:08.276Z,9.80
2019-02-06T19:16:36.923Z,8.63
2019-02-06T19:19:05.561Z,9.16
2019-02-06T19:21:33.823Z,9.63
2019-02-06T19:24:02.095Z,9.55
2019-02-06T19:26:30.445Z,9.19
2019-02-06T19:28:58.710Z,9.32
2019-02-06T19:31:27.071Z,9.28
2019-02-06T19:33:55.363Z,9.22
2019-02-06T19:36:23.916Z,9.40
2019-02-06T19:38:52.234Z,8.58
2019-02-06T19:41:20.496Z,9.16
2019-02-06T19:43:48.793Z,9.77
2019-02-06T19:46:17.123Z,10.08
2019-02-06T19:48:45.416Z,9.03
2019-02-06T19:51:13.742Z,9.33
2019-02-06T19:53:42.080Z,8.67
2019-02-06T19:56:10.572Z,8.51
2019-02-06T19:58:41.061Z,8.42
2019-02-06T20:01:08.998Z,8.46
2019-02-06T20:03:37.350Z,8.18
2019-02-06T20:06:06.008Z,8.76
2019-02-06T20:08:34.326Z,8.40
2019-02-06T20:11:02.699Z,8.93
2019-02-06T20:13:31.246Z,7.36
2019-02-06T20:15:59.545Z,8.31
2019-02-06T20:18:27.867Z,7.74
2019-02-06T20:20:56.176Z,8.43
2019-02-06T20:23:24.475Z,7.98
2019-02-06T20:25:52.967Z,7.26
2019-02-06T20:28:21.280Z,8.50
2019-02-06T20:30:49.756Z,8.49
2019-02-06T20:33:18.323Z,7.67
2019-02-06T20:35:46.623Z,7.37
2019-02-06T20:38:14.930Z,7.36
2019-02-06T20:40:44.402Z,8.26
2019-02-06T20:43:21.833Z,6.85
2019-02-06T20:45:42.867Z,8.10
2019-02-06T20:48:11.172Z,8.12
2019-02-06T20:50:39.827Z,8.16
2019-02-06T20:53:08.191Z,7.18
2019-02-06T20:55:36.576Z,7.79
2019-02-06T20:58:05.196Z,8.04
2019-02-06T21:00:42.723Z,7.82
2019-02-06T21:03:11.077Z,7.96
2019-02-06T21:05:39.431Z,7.09
2019-02-06T21:08:07.892Z,7.29
2019-02-06T21:10:36.730Z,7.41
2019-02-06T21:13:06.061Z,7.18
2019-02-06T21:15:34.482Z,6.86
2019-02-06T21:18:02.743Z,6.56
2019-02-06T21:20:31.087Z,6.85
2019-02-06T21:22:59.663Z,7.11
2019-02-06T21:25:28.429Z,7.70
2019-02-06T21:27:56.776Z,7.44
2019-02-06T21:30:30.490Z,7.03
2019-02-06T21:32:58.790Z,7.27
2019-02-06T21:35:27.222Z,7.63
2019-02-06T21:37:56.016Z,7.01
2019-02-06T21:40:27.089Z,6.82
2019-02-06T21:42:55.509Z,7.26
2019-02-06T21:45:23.802Z,6.91
2019-02-06T21:47:52.071Z,6.92
2019-02-06T21:50:23.182Z,6.41
2019-02-06T21:52:51.685Z,7.01
2019-02-06T21:55:24.137Z,6.25
2019-02-06T21:57:52.492Z,6.46
2019-02-06T22:00:22.718Z,6.58
2019-02-06T22:02:50.974Z,7.14
2019-02-06T22:05:19.605Z,6.68
2019-02-06T22:07:48.452Z,7.21
2019-02-06T22:10:19.643Z,7.53
2019-02-06T22:12:47.991Z,6.68
2019-02-06T22:15:30.437Z,7.36
2019-02-06T22:17:58.740Z,6.57
2019-02-06T22:20:27.484Z,7.55
2019-02-06T22:22:55.752Z,7.15
2019-02-06T22:25:24.115Z,6.88
2019-02-06T22:27:52.453Z,6.19
2019-02-06T22:30:28.243Z,6.57
2019-02-06T22:32:56.607Z,6.94
2019-02-06T22:35:25.702Z,6.95
2019-02-06T22:37:54.031Z,6.23
2019-02-06T22:40:24.108Z,7.67
2019-02-06T22:42:52.714Z,6.44
2019-02-06T22:45:23.697Z,6.86
2019-02-06T22:47:52.003Z,7.07
2019-02-06T22:50:25.446Z,6.59
2019-02-06T22:52:54.125Z,6.36
2019-02-06T22:55:22.467Z,6.52
2019-02-06T22:57:50.805Z,6.46
2019-02-06T23:00:25.214Z,6.48
2019-02-06T23:02:53.456Z,6.53
2019-02-06T23:05:21.987Z,6.50
2019-02-06T23:07:50.300Z,6.75
2019-02-06T23:10:18.631Z,6.37
2019-02-06T23:12:46.892Z,6.37
2019-02-06T23:15:15.556Z,6.48
2019-02-06T23:17:43.843Z,6.43
2019-02-06T23:20:12.967Z,5.85
2019-02-06T23:22:41.241Z,6.13
2019-02-06T23:25:09.689Z,6.62
2019-02-06T23:27:37.980Z,6.27
2019-02-06T23:30:09.500Z,6.39
2019-02-06T23:32:37.791Z,6.18
2019-02-06T23:35:06.494Z,6.01
2019-02-06T23:37:34.780Z,6.47
2019-02-06T23:40:04.791Z,6.62
2019-02-06T23:42:33.087Z,7.48
2019-02-06T23:45:01.369Z,8.05
2019-02-06T23:47:29.628Z,6.83
2019-02-06T23:49:58.389Z,7.74
2019-02-06T23:52:26.729Z,6.95
2019-02-06T23:54:55.027Z,6.20
2019-02-06T23:57:23.416Z,6.73
2019-02-06T23:59:51.651Z,6.30
